Time;durP1;ratioP1;P1;durP2;ratioP2;P2;SDS_P1;SDS_P2;PMS_P1;PMS_P2;Temp;Humidity;BMP_temperature;BMP_pressure;BME280_temperature;BME280_humidity;BME280_pressure;Samples;Min_cycle;Max_cycle;Signal;HPM_P1;HPM_P2
2022/02/15 00:01:43;;;;;;;2.65;1.23;;;;;;;;;;19747198;30;20059;-68
2022/02/15 00:11:45;;;;;;;2.53;1.30;;;;;;;;;;19752886;30;20134;-68
2022/02/15 00:21:47;;;;;;;2.03;1.08;;;;;;;;;;19751843;30;20137;-67
2022/02/15 00:31:48;;;;;;;2.28;1.10;;;;;;;;;;19751678;30;20134;-57
2022/02/15 00:41:50;;;;;;;1.25;0.70;;;;;;;;;;19750934;30;20398;-68
2022/02/15 00:51:52;;;;;;;4.35;1.00;;;;;;;;;;19750517;30;20063;-69
2022/02/15 01:01:54;;;;;;;3.15;1.02;;;;;;;;;;19749245;30;20068;-69
2022/02/15 01:11:55;;;;;;;2.28;0.90;;;;;;;;;;19748973;30;20164;-57
2022/02/15 01:21:57;;;;;;;2.45;1.00;;;;;;;;;;19747617;29;20068;-69
2022/02/15 01:31:59;;;;;;;2.45;1.05;;;;;;;;;;19748050;30;20055;-70
2022/02/15 01:42:01;;;;;;;3.15;0.75;;;;;;;;;;19747111;30;20068;-58
2022/02/15 01:52:02;;;;;;;1.20;0.68;;;;;;;;;;19746344;30;20055;-57
2022/02/15 02:02:04;;;;;;;2.35;0.93;;;;;;;;;;19747701;30;20063;-55
2022/02/15 02:12:06;;;;;;;3.60;0.98;;;;;;;;;;19745428;30;20052;-55
2022/02/15 02:22:08;;;;;;;2.03;1.00;;;;;;;;;;19743255;30;20572;-69
2022/02/15 02:32:15;;;;;;;2.45;1.20;;;;;;;;;;19744121;30;20519;-59
2022/02/15 02:42:32;;;;;;;3.20;1.10;;;;;;;;;;19743185;30;20152;-56
2022/02/15 02:52:41;;;;;;;2.67;1.02;;;;;;;;;;19747987;30;20079;-57
2022/02/15 03:02:50;;;;;;;2.40;0.90;;;;;;;;;;19742177;30;20417;-69
2022/02/15 03:12:57;;;;;;;2.65;1.10;;;;;;;;;;19742021;30;20048;-59
2022/02/15 03:23:04;;;;;;;2.83;1.23;;;;;;;;;;19741078;30;20399;-56
2022/02/15 03:33:07;;;;;;;2.10;0.98;;;;;;;;;;19745078;30;20155;-55
2022/02/15 03:43:10;;;;;;;3.78;0.90;;;;;;;;;;19755346;30;20093;-55
2022/02/15 03:53:15;;;;;;;3.58;1.00;;;;;;;;;;19755041;30;20485;-55
2022/02/15 04:03:18;;;;;;;2.42;0.90;;;;;;;;;;19754526;30;20052;-57
2022/02/15 04:13:20;;;;;;;5.82;1.40;;;;;;;;;;19757181;30;20056;-63
2022/02/15 04:23:22;;;;;;;3.10;1.05;;;;;;;;;;19752268;30;20498;-68
2022/02/15 04:33:24;;;;;;;4.65;1.40;;;;;;;;;;19754362;30;20052;-68
2022/02/15 04:43:27;;;;;;;2.15;1.25;;;;;;;;;;19750102;30;20076;-62
2022/02/15 04:53:30;;;;;;;3.17;1.02;;;;;;;;;;19750250;30;20142;-61
2022/02/15 05:03:33;;;;;;;4.00;1.33;;;;;;;;;;19749210;30;20055;-61
2022/02/15 05:13:35;;;;;;;4.45;1.25;;;;;;;;;;19748841;30;20052;-56
2022/02/15 05:23:37;;;;;;;4.38;1.60;;;;;;;;;;19748256;30;20072;-65
2022/02/15 05:33:38;;;;;;;6.82;2.08;;;;;;;;;;19747693;30;20048;-63
2022/02/15 05:43:40;;;;;;;6.07;2.08;;;;;;;;;;19746589;30;20070;-54
2022/02/15 05:53:42;;;;;;;4.10;2.30;;;;;;;;;;19745148;30;20527;-59
2022/02/15 06:14:03;;;;;;;5.60;2.63;;;;;;;;;;19744907;30;20544;-54
2022/02/15 06:24:05;;;;;;;5.10;2.40;;;;;;;;;;19743278;30;20158;-54
2022/02/15 06:34:07;;;;;;;4.95;3.00;;;;;;;;;;19744103;30;20139;-56
2022/02/15 06:44:09;;;;;;;6.32;3.00;;;;;;;;;;19742723;30;20455;-64
2022/02/15 06:54:10;;;;;;;5.38;3.17;;;;;;;;;;19742385;30;20060;-53
2022/02/15 07:04:12;;;;;;;7.28;3.10;;;;;;;;;;19741255;30;20140;-54
2022/02/15 07:14:14;;;;;;;8.05;3.10;;;;;;;;;;19740766;30;20098;-68
2022/02/15 07:24:16;;;;;;;14.25;3.97;;;;;;;;;;19740120;30;20093;-63
2022/02/15 07:34:18;;;;;;;7.97;4.50;;;;;;;;;;19740850;30;20048;-56
2022/02/15 07:44:20;;;;;;;7.88;4.30;;;;;;;;;;19740570;30;20518;-66
2022/02/15 07:54:22;;;;;;;13.23;3.72;;;;;;;;;;19739979;30;20090;-56
2022/02/15 08:04:24;;;;;;;9.55;4.13;;;;;;;;;;19739350;30;20059;-67
2022/02/15 08:14:27;;;;;;;11.52;4.53;;;;;;;;;;19738745;30;20500;-60
2022/02/15 08:24:29;;;;;;;9.23;4.20;;;;;;;;;;19748732;30;20087;-59
2022/02/15 08:34:32;;;;;;;10.00;3.42;;;;;;;;;;19757565;30;20052;-62
2022/02/15 08:44:34;;;;;;;7.93;3.47;;;;;;;;;;19753244;30;20173;-63
2022/02/15 08:54:37;;;;;;;9.38;3.83;;;;;;;;;;19750198;30;20056;-66
2022/02/15 09:04:39;;;;;;;11.40;4.05;;;;;;;;;;19749592;30;20056;-55
2022/02/15 09:14:41;;;;;;;7.07;3.55;;;;;;;;;;19749354;30;20413;-55
2022/02/15 09:24:42;;;;;;;7.60;3.97;;;;;;;;;;19746973;30;20102;-53
2022/02/15 09:34:44;;;;;;;6.05;3.00;;;;;;;;;;19747212;30;20466;-54
2022/02/15 09:44:49;;;;;;;4.55;2.53;;;;;;;;;;19746713;30;20059;-56
2022/02/15 09:54:52;;;;;;;3.83;2.00;;;;;;;;;;19745878;30;20081;-54
2022/02/15 10:04:55;;;;;;;3.83;1.48;;;;;;;;;;19745171;30;20127;-66
2022/02/15 10:14:57;;;;;;;7.20;1.95;;;;;;;;;;19745049;30;20497;-66
2022/02/15 10:24:59;;;;;;;4.15;2.15;;;;;;;;;;19743883;30;20150;-59
2022/02/15 10:35:01;;;;;;;3.75;2.10;;;;;;;;;;19743026;30;20143;-67
2022/02/15 10:45:05;;;;;;;7.82;6.15;;;;;;;;;;19742139;30;20064;-64
2022/02/15 10:55:08;;;;;;;9.00;2.95;;;;;;;;;;19741955;30;20109;-65
2022/02/15 11:05:11;;;;;;;9.65;3.05;;;;;;;;;;19741334;30;20060;-67
2022/02/15 11:15:18;;;;;;;5.93;2.95;;;;;;;;;;19741094;30;20434;-57
2022/02/15 11:25:33;;;;;;;7.90;2.90;;;;;;;;;;19740223;30;20070;-66
2022/02/15 11:35:35;;;;;;;6.45;2.65;;;;;;;;;;19739885;30;20505;-60
2022/02/15 11:45:41;;;;;;;8.40;2.97;;;;;;;;;;19723767;30;20098;-59
2022/02/15 11:55:43;;;;;;;6.80;3.50;;;;;;;;;;19746516;30;20482;-60
2022/02/15 12:05:47;;;;;;;6.35;2.83;;;;;;;;;;19752732;30;20060;-62
2022/02/15 12:15:49;;;;;;;7.60;2.33;;;;;;;;;;19751908;30;20055;-60
2022/02/15 12:25:52;;;;;;;2.58;1.02;;;;;;;;;;19751495;30;20110;-59
2022/02/15 12:35:57;;;;;;;4.80;1.10;;;;;;;;;;19751643;30;20482;-62
2022/02/15 12:45:59;;;;;;;2.97;1.40;;;;;;;;;;19750070;30;20146;-59
2022/02/15 12:56:10;;;;;;;3.05;0.98;;;;;;;;;;19749262;30;20060;-61
2022/02/15 13:06:12;;;;;;;2.45;1.00;;;;;;;;;;19748058;30;20413;-65
2022/02/15 13:16:14;;;;;;;3.22;1.23;;;;;;;;;;19748296;30;20059;-54
2022/02/15 13:26:16;;;;;;;3.53;1.00;;;;;;;;;;19746604;30;20067;-54
2022/02/15 13:36:19;;;;;;;5.22;1.27;;;;;;;;;;19746238;30;20048;-55
2022/02/15 13:46:21;;;;;;;3.38;1.00;;;;;;;;;;19745863;30;20486;-55
2022/02/15 13:56:23;;;;;;;3.08;1.20;;;;;;;;;;19746182;30;20060;-59
2022/02/15 14:06:25;;;;;;;3.55;1.05;;;;;;;;;;19744626;30;20062;-60
2022/02/15 14:16:27;;;;;;;3.00;1.15;;;;;;;;;;19743158;30;20066;-57
2022/02/15 14:26:31;;;;;;;2.50;1.15;;;;;;;;;;19743138;30;20063;-59
2022/02/15 14:36:33;;;;;;;5.30;1.10;;;;;;;;;;19743493;30;20056;-58
2022/02/15 14:46:36;;;;;;;2.50;1.17;;;;;;;;;;19742377;30;20083;-58
2022/02/15 14:56:38;;;;;;;4.50;1.50;;;;;;;;;;19741830;30;20060;-58
2022/02/15 15:06:41;;;;;;;2.00;1.20;;;;;;;;;;19741242;30;20059;-56
2022/02/15 15:16:46;;;;;;;1.60;1.10;;;;;;;;;;19741085;30;20075;-55
2022/02/15 15:26:49;;;;;;;3.25;1.00;;;;;;;;;;19741261;30;20493;-56
2022/02/15 15:36:51;;;;;;;4.25;1.48;;;;;;;;;;19755517;30;20067;-54
2022/02/15 15:46:55;;;;;;;5.13;1.50;;;;;;;;;;19754400;30;20072;-56
2022/02/15 15:56:57;;;;;;;3.60;1.57;;;;;;;;;;19754015;30;20056;-55
2022/02/15 16:07:00;;;;;;;5.63;2.67;;;;;;;;;;19753237;30;20532;-59
2022/02/15 16:17:02;;;;;;;5.28;1.60;;;;;;;;;;19752890;30;20067;-59
2022/02/15 16:27:04;;;;;;;6.82;2.00;;;;;;;;;;19750955;30;20067;-57
2022/02/15 16:37:07;;;;;;;4.28;1.45;;;;;;;;;;19750746;30;20363;-57
2022/02/15 16:47:10;;;;;;;2.30;1.30;;;;;;;;;;19748850;30;20531;-55
2022/02/15 16:57:12;;;;;;;5.00;2.25;;;;;;;;;;19749995;30;20108;-57
2022/02/15 17:07:14;;;;;;;4.38;1.58;;;;;;;;;;19749277;30;20141;-53
2022/02/15 17:17:20;;;;;;;6.47;4.05;;;;;;;;;;19748594;30;20056;-53
2022/02/15 17:27:22;;;;;;;6.65;2.70;;;;;;;;;;19747062;30;20125;-55
2022/02/15 17:37:24;;;;;;;3.67;1.80;;;;;;;;;;19746468;30;20071;-55
2022/02/15 17:47:26;;;;;;;5.93;2.72;;;;;;;;;;19747108;30;20502;-58
2022/02/15 17:57:29;;;;;;;5.75;2.58;;;;;;;;;;19745881;30;20090;-55
2022/02/15 18:07:30;;;;;;;5.18;2.00;;;;;;;;;;19745312;30;20149;-63
2022/02/15 18:17:33;;;;;;;10.45;5.43;;;;;;;;;;19783250;29;20452;-60
2022/02/15 18:27:35;;;;;;;8.63;5.07;;;;;;;;;;19774193;29;20066;-61
2022/02/15 18:37:39;;;;;;;6.22;2.50;;;;;;;;;;19773270;29;20055;-61
2022/02/15 18:47:40;;;;;;;4.25;2.05;;;;;;;;;;19804612;30;20055;-62
2022/02/15 18:57:42;;;;;;;6.43;2.28;;;;;;;;;;19814635;29;20449;-59
2022/02/15 19:07:48;;;;;;;6.28;2.22;;;;;;;;;;19791379;29;20059;-66
2022/02/15 19:17:52;;;;;;;6.13;2.35;;;;;;;;;;19800166;30;20051;-59
2022/02/15 19:27:53;;;;;;;21.90;11.05;;;;;;;;;;19813317;29;20083;-57
2022/02/15 19:37:55;;;;;;;8.45;3.50;;;;;;;;;;19813446;30;20160;-61
2022/02/15 19:47:57;;;;;;;7.30;3.28;;;;;;;;;;19813205;30;20052;-62
2022/02/15 19:57:59;;;;;;;5.63;3.00;;;;;;;;;;19813660;30;20454;-58
2022/02/15 20:08:00;;;;;;;5.45;2.63;;;;;;;;;;19813666;30;20056;-59
2022/02/15 20:18:02;;;;;;;11.95;5.38;;;;;;;;;;19818629;29;20090;-58
2022/02/15 20:28:05;;;;;;;11.68;5.20;;;;;;;;;;19824876;30;20063;-59
2022/02/15 20:38:06;;;;;;;5.05;2.40;;;;;;;;;;19824599;30;20055;-59
2022/02/15 20:48:08;;;;;;;6.50;3.83;;;;;;;;;;19825129;30;20091;-56
2022/02/15 20:58:10;;;;;;;7.40;2.38;;;;;;;;;;19824282;30;20055;-56
2022/02/15 21:08:12;;;;;;;6.63;2.47;;;;;;;;;;19822867;30;20071;-59
2022/02/15 21:18:14;;;;;;;7.93;3.08;;;;;;;;;;19822151;30;20091;-54
2022/02/15 21:28:15;;;;;;;5.40;2.83;;;;;;;;;;19820908;30;20516;-58
2022/02/15 21:38:18;;;;;;;5.95;2.42;;;;;;;;;;19821218;30;20502;-59
2022/02/15 21:48:20;;;;;;;5.60;2.45;;;;;;;;;;19820570;30;20058;-60
2022/02/15 21:58:23;;;;;;;4.68;2.00;;;;;;;;;;19819205;30;20051;-56
2022/02/15 22:08:26;;;;;;;6.95;2.60;;;;;;;;;;19818674;30;20055;-59
2022/02/15 22:18:28;;;;;;;4.20;1.70;;;;;;;;;;19819197;30;20087;-58
2022/02/15 22:28:31;;;;;;;5.70;1.70;;;;;;;;;;19801294;30;20095;-54
2022/02/15 22:38:33;;;;;;;6.85;2.20;;;;;;;;;;19817301;29;20545;-56
2022/02/15 22:48:35;;;;;;;5.13;2.40;;;;;;;;;;19817439;30;20497;-59
2022/02/15 22:58:37;;;;;;;5.32;2.50;;;;;;;;;;19817451;30;20093;-60
2022/02/15 23:19:16;;;;;;;4.53;2.00;;;;;;;;;;19586536;30;20057;-56
2022/02/15 23:29:18;;;;;;;5.88;2.33;;;;;;;;;;19585499;30;20060;-59
2022/02/15 23:39:19;;;;;;;7.22;1.95;;;;;;;;;;19586095;30;20103;-59
2022/02/15 23:49:21;;;;;;;5.10;2.00;;;;;;;;;;19665596;30;20055;-58
2022/02/15 23:59:23;;;;;;;5.40;1.92;;;;;;;;;;19754780;30;20064;-59
